KSLO/SLO METAR and TAF weather

Enter ICAO airport designator
Station Type Date Time Source
KSLO METAR 2018/12/15 02:55 UTC NOAA

KSLO 150255Z AUTO 02020G24KT 7SM RA OVC006 08/07 A3000 RMK AO2 P0001 60012 T00750067


Station Type Date Time Source
KSLO Decoded METAR 2018/12/15 02:55 UTC NOAA

Salem, Salem-Leckrone Airport, IL, United States (KSLO) 38-38-34N 088-57-51W 174M
Dec 14, 2018 - 09:55 PM EST / 2018.12.15 0255 UTC
Wind: from the NNE (020 degrees) at 23 MPH (20 KT) gusting to 28 MPH (24 KT):0
Visibility: 7 mile(s):0
Sky conditions: overcast
Weather: rain
Precipitation last hour: 0.01 inches
Temperature: 45.5 F (7.5 C)
Dew Point: 44.1 F (6.7 C)
Relative Humidity: 94%
Pressure (altimeter): 30 in. Hg (1015 hPa)
ob: KSLO 150255Z AUTO 02020G24KT 7SM RA OVC006 08/07 A3000 RMK AO2 P0001 60012 T00750067
cycle: 3

Station Type Date Time Source
KSLO TAF UTC NOAA

Error!


Example: see airport list